Airfield :
LOGIN :

Register | Disclaimer

   EN    FR    IT 

 










Legend :    VFR   Marginal VFR   IFR   Intensive IFR   Very Intensive IFR
Visi :
Ceiling :
>= 8 km
>= 3000ft
5 to 8 km
1000 to 3000 ft
1500m to 5 km
500 to 1000 ft
800 to 1500m
200 to 500 ft
< 800m
< 200 ft
Symbols :   Thunderstorms  Fog  Heavy snow  Heavy precipitations  Wind > 20 kt
SIGMETs :     Misc.  Thunderstorms  Icing  Turbulence  Mountain Waves  Volcanic Ashes







- Airport Elevation : 3 ft
- IATA code : DHR


EHKD - Den Helder De Kooy

CURRENT METAR :
  • 221825Z AUTO 29002KT 9999 NCD 12/11 Q1022 BLU 33005KT 9999 FEW020

EXPIRED METARs :
  • 221755Z AUTO 30003KT 9999 NCD 14/11 Q1021 BLU 33005KT 9999 FEW020
  • 221735Z AUTO 31003KT 9999 NCD 14/11 Q1021 BLU 33005KT 9999 FEW020
  • 221725Z AUTO 31004KT 9999 FEW020 15/11 Q1021 BLU 33005KT 9999 FEW015 SCT040
  • 221655Z AUTO 31006KT 280V340 9999 NCD 16/11 Q1021 BLU 33005KT 9999 FEW015 SCT040
  • 221625Z AUTO 32006KT 280V360 9999 BKN051/// 16/12 Q1021 BLU 33005KT 9999 FEW015 SCT040
  • 221555Z AUTO 31007KT 280V360 9999 BKN044 OVC050 16/12 Q1020 BLU 33005KT 9999 FEW015 SCT040
  • 221530Z AUTO 31008KT 9999 FEW017 BKN043 BKN095 16/13 Q1020 BLU 33005KT 9999 FEW015 SCT040

TAF TAF EHKD
Valid from the 22 at 17:00 until the 23 at 05:00 UTC


221622Z 2217/2305 30006KT 9999 FEW015 SCT050
BECMG 2302/2305 18003KT
No reported NOTAMs for that airfield.



MET'MAP, your aeronautical weather chart ! - Copyright ORBIFLY December 2007 - Disclaimer

ORBIFLY MET'MAP TEAM :

Programming & Development : Alexandra Zaïnal
Concept & Development : Baudouin d'Aumeries
Co-Development & Prog : Marc-Olivier Méhu
Technical & hardware support : Manuel Goepfert

Contact : metmap@orbifly.com




SOURCES & CREDITS :

   NOAA